createdAt,value
2018-07-22T00:00:18.222Z,97533.80
2018-07-22T00:02:46.451Z,97527.38
2018-07-22T00:05:15.551Z,97531.85
2018-07-22T00:07:44.419Z,97533.69
2018-07-22T00:10:21.365Z,97535.81
2018-07-22T00:12:49.605Z,97530.17
2018-07-22T00:15:18.387Z,97537.22
2018-07-22T00:17:46.627Z,97527.02
2018-07-22T00:20:15.354Z,97526.46
2018-07-22T00:22:43.609Z,97521.48
2018-07-22T00:25:11.855Z,97524.98
2018-07-22T00:27:40.123Z,97521.30
2018-07-22T00:30:09.362Z,97515.36
2018-07-22T00:32:38.550Z,97519.92
2018-07-22T00:35:06.785Z,97523.75
2018-07-22T00:37:34.974Z,97514.55
2018-07-22T00:40:03.472Z,97515.42
2018-07-22T00:42:31.726Z,97519.84
2018-07-22T00:45:00.002Z,97520.89
2018-07-22T00:47:28.318Z,97520.38
2018-07-22T00:49:57.032Z,97518.86
2018-07-22T00:52:25.357Z,97519.64
2018-07-22T00:54:53.569Z,97518.77
2018-07-22T00:57:21.767Z,97515.61
2018-07-22T00:59:49.958Z,97515.36
2018-07-22T01:02:18.150Z,97511.86
2018-07-22T01:04:46.345Z,97515.50
2018-07-22T01:07:21.301Z,97518.15
2018-07-22T01:09:49.489Z,97514.91
2018-07-22T01:12:17.748Z,97516.77
2018-07-22T01:14:45.948Z,97515.16
2018-07-22T01:17:14.254Z,97510.16
2018-07-22T01:19:42.467Z,97511.73
2018-07-22T01:22:10.713Z,97505.51
2018-07-22T01:24:38.970Z,97501.87
2018-07-22T01:27:07.178Z,97509.14
2018-07-22T01:29:35.353Z,97501.59
2018-07-22T01:32:03.540Z,97503.25
2018-07-22T01:34:31.746Z,97503.94
2018-07-22T01:36:59.966Z,97495.52
2018-07-22T01:39:28.522Z,97501.73
2018-07-22T01:41:56.718Z,97501.56
2018-07-22T01:44:24.974Z,97499.16
2018-07-22T01:46:53.186Z,97497.95
2018-07-22T01:49:21.370Z,97490.33
2018-07-22T01:51:49.554Z,97492.16
2018-07-22T01:54:17.829Z,97488.85
2018-07-22T01:56:46.133Z,97488.57
2018-07-22T01:59:14.412Z,97483.97
2018-07-22T02:01:42.665Z,97481.16
2018-07-22T02:04:10.801Z,97484.06
2018-07-22T02:06:38.991Z,97485.48
2018-07-22T02:09:08.508Z,97485.94
2018-07-22T02:11:36.677Z,97481.16
2018-07-22T02:14:04.859Z,97484.89
2018-07-22T02:16:33.087Z,97485.59
2018-07-22T02:19:01.341Z,97487.50
2018-07-22T02:21:29.883Z,97490.59
2018-07-22T02:23:58.421Z,97487.53
2018-07-22T02:26:26.734Z,97487.09
2018-07-22T02:28:54.906Z,97495.22
2018-07-22T02:31:23.223Z,97492.98
2018-07-22T02:33:51.403Z,97495.34
2018-07-22T02:36:19.623Z,97490.08
2018-07-22T02:38:47.881Z,97493.21
2018-07-22T02:41:16.369Z,97489.68
2018-07-22T02:43:44.622Z,97501.84
2018-07-22T02:46:12.935Z,97493.45
2018-07-22T02:48:41.178Z,97496.41
2018-07-22T02:51:09.473Z,97495.56
2018-07-22T02:53:37.670Z,97493.58
2018-07-22T02:56:05.846Z,97495.40
2018-07-22T02:58:34.018Z,97497.23
2018-07-22T03:01:02.202Z,97494.55
2018-07-22T03:03:30.426Z,97492.39
2018-07-22T03:05:58.569Z,97491.11
2018-07-22T03:08:26.841Z,97497.18
2018-07-22T03:10:55.669Z,97495.03
2018-07-22T03:13:23.837Z,97496.72
2018-07-22T03:15:52.437Z,97495.78
2018-07-22T03:18:20.645Z,97497.16
2018-07-22T03:20:48.844Z,97498.80
2018-07-22T03:23:17.031Z,97491.91
2018-07-22T03:25:45.210Z,97490.08
2018-07-22T03:28:13.384Z,97491.60
2018-07-22T03:30:41.581Z,97489.30
2018-07-22T03:33:09.876Z,97499.40
2018-07-22T03:35:38.065Z,97498.69
2018-07-22T03:38:06.297Z,97489.48
2018-07-22T03:40:34.481Z,97499.11
2018-07-22T03:43:03.057Z,97498.32
2018-07-22T03:45:31.248Z,97498.13
2018-07-22T03:47:59.762Z,97495.81
2018-07-22T03:50:28.613Z,97504.30
2018-07-22T03:52:56.828Z,97501.41
2018-07-22T03:55:25.124Z,97503.31
2018-07-22T03:57:53.352Z,97505.44
2018-07-22T04:00:21.534Z,97502.01
2018-07-22T04:02:49.698Z,97501.13
2018-07-22T04:05:17.950Z,97505.38
2018-07-22T04:07:46.238Z,97512.60
2018-07-22T04:10:14.423Z,97515.12
2018-07-22T04:12:42.590Z,97517.45
2018-07-22T04:15:10.878Z,97514.98
2018-07-22T04:17:39.533Z,97518.45
2018-07-22T04:20:08.273Z,97519.73
2018-07-22T04:22:36.816Z,97519.69
2018-07-22T04:25:05.141Z,97523.84
2018-07-22T04:27:33.302Z,97518.55
2018-07-22T04:30:01.493Z,97520.56
2018-07-22T04:32:30.237Z,97523.33
2018-07-22T04:34:58.489Z,97534.94
2018-07-22T04:37:26.677Z,97528.04
2018-07-22T04:39:54.869Z,97534.09
2018-07-22T04:42:23.045Z,97533.67
2018-07-22T04:44:51.307Z,97538.53
2018-07-22T04:47:19.554Z,97539.60
2018-07-22T04:49:48.729Z,97534.13
2018-07-22T04:52:17.057Z,97535.80
2018-07-22T04:54:45.263Z,97537.00
2018-07-22T04:57:13.454Z,97547.09
2018-07-22T04:59:41.634Z,97538.58
2018-07-22T05:02:10.444Z,97537.73
2018-07-22T05:04:39.030Z,97546.45
2018-07-22T05:07:07.221Z,97548.52
2018-07-22T05:09:35.388Z,97545.94
2018-07-22T05:12:03.591Z,97550.96
2018-07-22T05:14:31.890Z,97553.67
2018-07-22T05:17:00.113Z,97553.48
2018-07-22T05:19:28.289Z,97556.31
2018-07-22T05:21:56.491Z,97557.14
2018-07-22T05:24:24.685Z,97558.22
2018-07-22T05:26:52.881Z,97561.82
2018-07-22T05:29:21.430Z,97558.54
2018-07-22T05:31:49.669Z,97562.52
2018-07-22T05:34:17.933Z,97556.36
2018-07-22T05:36:46.109Z,97560.85
2018-07-22T05:39:14.591Z,97564.23
2018-07-22T05:41:42.973Z,97561.69
2018-07-22T05:44:11.169Z,97565.70
2018-07-22T05:46:39.381Z,97572.45
2018-07-22T05:49:07.561Z,97569.30
2018-07-22T05:51:35.880Z,97576.38
2018-07-22T05:54:04.252Z,97576.53
2018-07-22T05:56:32.657Z,97574.50
2018-07-22T05:59:00.931Z,97579.14
2018-07-22T06:01:29.153Z,97572.22
2018-07-22T06:03:57.352Z,97580.00
2018-07-22T06:06:25.542Z,97587.00
2018-07-22T06:08:53.804Z,97585.92
2018-07-22T06:11:22.278Z,97582.30
2018-07-22T06:13:51.046Z,97584.45
2018-07-22T06:16:19.510Z,97588.59
2018-07-22T06:18:47.702Z,97585.69
2018-07-22T06:21:16.809Z,97590.28
2018-07-22T06:23:44.994Z,97591.80
2018-07-22T06:26:13.180Z,97594.77
2018-07-22T06:28:41.737Z,97603.36
2018-07-22T06:31:09.944Z,97603.08
2018-07-22T06:33:38.266Z,97604.54
2018-07-22T06:36:06.462Z,97606.33
2018-07-22T06:38:34.638Z,97609.13
2018-07-22T06:41:02.981Z,97603.83
2018-07-22T06:43:31.137Z,97602.89
2018-07-22T06:45:59.341Z,97598.92
2018-07-22T06:48:27.507Z,97609.08
2018-07-22T06:50:55.705Z,97605.69
2018-07-22T06:53:23.949Z,97604.09
2018-07-22T06:55:52.241Z,97609.73
2018-07-22T06:58:20.536Z,97601.48
2018-07-22T07:00:48.752Z,97605.84
2018-07-22T07:03:16.941Z,97615.52
2018-07-22T07:05:45.157Z,97606.56
2018-07-22T07:08:13.359Z,97607.45
2018-07-22T07:10:41.541Z,97608.27
2018-07-22T07:13:09.728Z,97612.10
2018-07-22T07:15:38.004Z,97608.36
2018-07-22T07:18:06.410Z,97610.42
2018-07-22T07:20:36.810Z,97612.12
2018-07-22T07:23:05.828Z,97605.00
2018-07-22T07:25:34.087Z,97612.34
2018-07-22T07:28:03.795Z,97609.50
2018-07-22T07:30:32.224Z,97613.88
2018-07-22T07:33:00.605Z,97616.22
2018-07-22T07:35:29.090Z,97621.88
2018-07-22T07:37:57.514Z,97628.11
2018-07-22T07:40:25.832Z,97626.25
2018-07-22T07:42:54.032Z,97627.90
2018-07-22T07:45:22.217Z,97632.45
2018-07-22T07:47:50.413Z,97626.12
2018-07-22T07:50:18.605Z,97626.53
2018-07-22T07:52:46.861Z,97634.17
2018-07-22T07:55:15.153Z,97634.17
2018-07-22T07:57:43.339Z,97637.59
2018-07-22T08:00:11.532Z,97640.33
2018-07-22T08:02:39.821Z,97635.50
2018-07-22T08:05:08.107Z,97635.94
2018-07-22T08:07:36.336Z,97642.39
2018-07-22T08:10:05.582Z,97638.45
2018-07-22T08:12:33.830Z,97639.70
2018-07-22T08:15:02.045Z,97641.02
2018-07-22T08:17:30.304Z,97641.87
2018-07-22T08:19:58.488Z,97648.31
2018-07-22T08:22:26.666Z,97640.33
2018-07-22T08:24:54.858Z,97640.34
2018-07-22T08:27:23.063Z,97648.09
2018-07-22T08:29:51.326Z,97644.64
2018-07-22T08:32:19.509Z,97639.27
2018-07-22T08:34:47.706Z,97646.46
2018-07-22T08:37:15.886Z,97649.22
2018-07-22T08:39:44.086Z,97658.16
2018-07-22T08:42:12.298Z,97661.91
2018-07-22T08:44:40.553Z,97657.77
2018-07-22T08:47:08.766Z,97659.60
2018-07-22T08:49:37.251Z,97653.78
2018-07-22T08:52:05.613Z,97662.80
2018-07-22T08:54:33.811Z,97659.47
2018-07-22T08:57:01.986Z,97668.06
2018-07-22T08:59:30.179Z,97663.55
2018-07-22T09:01:58.373Z,97664.14
2018-07-22T09:04:26.753Z,97662.52
2018-07-22T09:06:55.227Z,97665.31
2018-07-22T09:09:23.845Z,97666.70
2018-07-22T09:11:52.207Z,97666.88
2018-07-22T09:14:20.381Z,97674.33
2018-07-22T09:16:49.029Z,97669.43
2018-07-22T09:19:17.329Z,97675.87
2018-07-22T09:21:45.928Z,97672.17
2018-07-22T09:24:14.525Z,97674.52
2018-07-22T09:26:42.758Z,97674.11
2018-07-22T09:29:11.015Z,97675.50
2018-07-22T09:31:39.270Z,97678.07
2018-07-22T09:34:07.539Z,97686.94
2018-07-22T09:36:35.794Z,97681.95
2018-07-22T09:39:06.039Z,97689.73
2018-07-22T09:41:34.231Z,97685.62
2018-07-22T09:44:02.426Z,97685.66
2018-07-22T09:46:30.698Z,97689.66
2018-07-22T09:48:58.916Z,97685.94
2018-07-22T09:51:27.183Z,97696.89
2018-07-22T09:53:55.378Z,97699.47
2018-07-22T09:56:23.560Z,97692.52
2018-07-22T09:58:51.730Z,97696.69
2018-07-22T10:01:19.961Z,97694.57
2018-07-22T10:03:48.188Z,97698.54
2018-07-22T10:06:16.414Z,97694.23
2018-07-22T10:08:44.711Z,97693.55
2018-07-22T10:11:13.024Z,97700.11
2018-07-22T10:13:41.161Z,97698.78
2018-07-22T10:16:09.417Z,97699.45
2018-07-22T10:18:37.742Z,97697.31
2018-07-22T10:21:06.051Z,97699.95
2018-07-22T10:23:34.397Z,97701.52
2018-07-22T10:26:02.644Z,97706.95
2018-07-22T10:28:30.808Z,97703.23
2018-07-22T10:30:58.987Z,97700.05
2018-07-22T10:33:27.182Z,97707.95
2018-07-22T10:35:55.396Z,97708.63
2018-07-22T10:38:23.518Z,97705.34
2018-07-22T10:40:51.781Z,97706.59
2018-07-22T10:43:19.936Z,97714.95
2018-07-22T10:45:48.170Z,97708.13
2018-07-22T10:48:16.361Z,97706.05
2018-07-22T10:50:44.543Z,97705.95
2018-07-22T10:53:12.771Z,97707.56
2018-07-22T10:55:40.934Z,97703.64
2018-07-22T10:58:09.150Z,97715.53
2018-07-22T11:00:37.333Z,97707.89
2018-07-22T11:03:06.422Z,97705.75
2018-07-22T11:05:34.679Z,97707.61
2018-07-22T11:08:02.833Z,97707.24
2018-07-22T11:10:31.028Z,97708.98
2018-07-22T11:12:59.193Z,97715.90
2018-07-22T11:15:27.401Z,97713.83
2018-07-22T11:17:55.607Z,97716.05
2018-07-22T11:20:23.822Z,97710.47
2018-07-22T11:22:51.972Z,97713.17
2018-07-22T11:25:20.214Z,97718.08
2018-07-22T11:27:48.450Z,97713.11
2018-07-22T11:30:16.708Z,97712.92
2018-07-22T11:32:44.970Z,97715.55
2018-07-22T11:35:13.240Z,97715.64
2018-07-22T11:37:41.452Z,97722.25
2018-07-22T11:40:10.546Z,97723.16
2018-07-22T11:42:38.826Z,97719.60
2018-07-22T11:45:07.046Z,97723.02
2018-07-22T11:47:35.425Z,97716.15
2018-07-22T11:50:05.384Z,97717.75
2018-07-22T11:52:33.597Z,97715.08
2018-07-22T11:55:01.836Z,97716.39
2018-07-22T11:57:30.016Z,97726.08
2018-07-22T11:59:58.217Z,97727.77
2018-07-22T12:02:26.455Z,97724.58
2018-07-22T12:04:54.713Z,97722.24
2018-07-22T12:07:22.964Z,97721.61
2018-07-22T12:09:51.167Z,97719.75
2018-07-22T12:12:19.397Z,97718.86
2018-07-22T12:14:47.552Z,97725.81
2018-07-22T12:17:15.772Z,97712.00
2018-07-22T12:19:43.970Z,97711.61
2018-07-22T12:22:12.182Z,97712.94
2018-07-22T12:24:40.418Z,97710.73
2018-07-22T12:27:09.002Z,97709.95
2018-07-22T12:29:37.210Z,97707.22
2018-07-22T12:32:05.446Z,97715.67
2018-07-22T12:34:33.734Z,97712.22
2018-07-22T12:37:01.906Z,97711.92
2018-07-22T12:39:30.114Z,97714.91
2018-07-22T12:41:58.413Z,97712.42
2018-07-22T12:44:26.646Z,97709.97
2018-07-22T12:46:54.945Z,97718.30
2018-07-22T12:49:23.176Z,97714.58
2018-07-22T12:51:51.417Z,97715.04
2018-07-22T12:54:19.631Z,97713.48
2018-07-22T12:56:47.845Z,97714.32
2018-07-22T12:59:16.158Z,97712.88
2018-07-22T13:01:44.437Z,97710.38
2018-07-22T13:04:12.648Z,97712.11
2018-07-22T13:06:40.935Z,97705.67
2018-07-22T13:09:10.338Z,97708.55
2018-07-22T13:11:38.565Z,97703.36
2018-07-22T13:14:07.120Z,97700.42
2018-07-22T13:16:35.353Z,97697.22
2018-07-22T13:19:03.846Z,97704.56
2018-07-22T13:21:32.239Z,97691.47
2018-07-22T13:24:00.589Z,97690.11
2018-07-22T13:26:28.864Z,97696.72
2018-07-22T13:28:57.079Z,97692.49
2018-07-22T13:31:25.520Z,97692.54
2018-07-22T13:33:53.782Z,97699.45
2018-07-22T13:36:22.003Z,97697.13
2018-07-22T13:38:50.244Z,97695.47
2018-07-22T13:41:18.891Z,97693.91
2018-07-22T13:43:47.143Z,97693.94
2018-07-22T13:46:15.386Z,97695.18
2018-07-22T13:48:43.612Z,97700.59
2018-07-22T13:51:11.830Z,97698.45
2018-07-22T13:53:40.066Z,97700.97
2018-07-22T13:56:08.456Z,97695.86
2018-07-22T13:58:36.760Z,97703.00
2018-07-22T14:01:05.742Z,97700.16
2018-07-22T14:03:34.850Z,97694.14
2018-07-22T14:06:03.124Z,97696.92
2018-07-22T14:08:31.391Z,97702.51
2018-07-22T14:10:59.640Z,97701.47
2018-07-22T14:13:27.925Z,97694.20
2018-07-22T14:15:56.151Z,97692.36
2018-07-22T14:18:24.358Z,97694.47
2018-07-22T14:20:52.579Z,97698.46
2018-07-22T14:23:20.857Z,97683.80
2018-07-22T14:25:49.051Z,97683.20
2018-07-22T14:28:17.773Z,97675.91
2018-07-22T14:30:46.059Z,97683.50
2018-07-22T14:33:14.231Z,97679.45
2018-07-22T14:35:42.424Z,97693.78
2018-07-22T14:38:10.701Z,97687.39
2018-07-22T14:40:38.958Z,97688.58
2018-07-22T14:43:07.498Z,97695.33
2018-07-22T14:45:35.854Z,97690.62
2018-07-22T14:48:04.080Z,97694.67
2018-07-22T14:50:32.481Z,97692.27
2018-07-22T14:53:00.968Z,97697.10
2018-07-22T14:55:29.532Z,97687.97
2018-07-22T14:57:57.794Z,97696.81
2018-07-22T15:00:26.092Z,97691.37
2018-07-22T15:02:54.293Z,97698.51
2018-07-22T15:05:22.587Z,97701.83
2018-07-22T15:07:50.800Z,97689.48
2018-07-22T15:10:19.011Z,97684.87
2018-07-22T15:12:47.293Z,97685.38
2018-07-22T15:15:15.487Z,97682.80
2018-07-22T15:17:43.697Z,97686.02
2018-07-22T15:20:11.895Z,97675.70
2018-07-22T15:22:40.105Z,97674.89
2018-07-22T15:25:08.742Z,97682.31
2018-07-22T15:27:37.068Z,97682.72
2018-07-22T15:30:05.742Z,97684.41
2018-07-22T15:32:33.925Z,97677.31
2018-07-22T15:35:02.197Z,97679.36
2018-07-22T15:37:30.388Z,97678.92
2018-07-22T15:39:58.582Z,97672.70
2018-07-22T15:42:26.759Z,97672.70
2018-07-22T15:44:55.307Z,97662.06
2018-07-22T15:47:23.490Z,97673.40
2018-07-22T15:49:51.792Z,97667.27
2018-07-22T15:52:20.056Z,97665.09
2018-07-22T15:54:48.286Z,97654.30
2018-07-22T15:57:16.465Z,97657.80
2018-07-22T15:59:44.658Z,97660.39
2018-07-22T16:02:13.242Z,97649.37
2018-07-22T16:04:41.600Z,97661.41
2018-07-22T16:07:10.009Z,97649.07
2018-07-22T16:09:38.420Z,97651.02
2018-07-22T16:12:06.646Z,97663.18
2018-07-22T16:14:34.981Z,97658.03
2018-07-22T16:17:03.237Z,97660.75
2018-07-22T16:19:32.826Z,97654.66
2018-07-22T16:22:02.090Z,97655.74
2018-07-22T16:24:30.646Z,97656.95
2018-07-22T16:26:59.259Z,97654.34
2018-07-22T16:29:27.645Z,97657.42
2018-07-22T16:31:56.546Z,97656.05
2018-07-22T16:34:24.984Z,97657.33
2018-07-22T16:36:53.190Z,97653.86
2018-07-22T16:39:21.942Z,97645.75
2018-07-22T16:41:50.154Z,97645.61
2018-07-22T16:44:20.658Z,97647.19
2018-07-22T16:46:48.847Z,97652.13
2018-07-22T16:49:17.168Z,97658.66
2018-07-22T16:51:46.085Z,97653.16
2018-07-22T16:54:14.317Z,97650.91
2018-07-22T16:56:42.490Z,97660.74
2018-07-22T16:59:10.700Z,97661.78
2018-07-22T17:01:38.901Z,97663.45
2018-07-22T17:04:07.064Z,97661.73
2018-07-22T17:06:35.293Z,97666.56
2018-07-22T17:09:03.541Z,97665.95
2018-07-22T17:11:31.785Z,97668.41
2018-07-22T17:13:59.982Z,97667.97
2018-07-22T17:16:28.190Z,97672.91
2018-07-22T17:18:56.360Z,97671.05
2018-07-22T17:21:24.560Z,97672.28
2018-07-22T17:23:52.748Z,97674.73
2018-07-22T17:26:20.918Z,97676.05
2018-07-22T17:28:49.157Z,97675.76
2018-07-22T17:31:17.429Z,97680.31
2018-07-22T17:33:45.585Z,97684.06
2018-07-22T17:36:13.837Z,97681.09
2018-07-22T17:38:42.006Z,97685.03
2018-07-22T17:41:10.182Z,97684.78
2018-07-22T17:43:38.374Z,97689.90
2018-07-22T17:46:06.620Z,97697.28
2018-07-22T17:48:34.875Z,97692.25
2018-07-22T17:51:03.095Z,97695.86
2018-07-22T17:53:31.252Z,97697.55
2018-07-22T17:55:59.449Z,97696.52
2018-07-22T17:58:27.639Z,97703.33
2018-07-22T18:00:55.805Z,97703.58
2018-07-22T18:03:26.803Z,97695.48
2018-07-22T18:05:55.037Z,97701.28
2018-07-22T18:08:23.281Z,97697.83
2018-07-22T18:10:52.514Z,97699.06
2018-07-22T18:13:20.714Z,97697.60
2018-07-22T18:15:48.886Z,97706.56
2018-07-22T18:18:17.578Z,97710.63
2018-07-22T18:20:46.830Z,97711.80
2018-07-22T18:23:15.098Z,97707.78
2018-07-22T18:25:44.289Z,97713.95
2018-07-22T18:28:12.990Z,97728.39
2018-07-22T18:30:41.236Z,97725.80
2018-07-22T18:33:09.427Z,97731.80
2018-07-22T18:35:38.374Z,97736.92
2018-07-22T18:38:06.593Z,97737.28
2018-07-22T18:40:35.856Z,97741.61
2018-07-22T18:43:04.051Z,97745.19
2018-07-22T18:45:33.685Z,97740.70
2018-07-22T18:48:03.266Z,97745.28
2018-07-22T18:50:31.913Z,97738.67
2018-07-22T18:53:00.191Z,97737.69
2018-07-22T18:55:28.579Z,97740.40
2018-07-22T18:57:57.892Z,97746.26
2018-07-22T19:00:27.143Z,97744.73
2018-07-22T19:02:55.557Z,97744.30
2018-07-22T19:05:24.181Z,97753.23
2018-07-22T19:07:52.390Z,97758.33
2018-07-22T19:10:20.924Z,97760.94
2018-07-22T19:12:49.148Z,97774.80
2018-07-22T19:15:17.436Z,97775.12
2018-07-22T19:17:45.804Z,97767.20
2018-07-22T19:20:14.071Z,97773.44
2018-07-22T19:22:42.546Z,97775.63
2018-07-22T19:25:10.834Z,97780.55
2018-07-22T19:27:39.230Z,97787.75
2018-07-22T19:30:07.794Z,97785.91
2018-07-22T19:32:36.408Z,97790.18
2018-07-22T19:35:05.026Z,97797.13
2018-07-22T19:37:33.234Z,97799.96
2018-07-22T19:40:01.646Z,97801.49
2018-07-22T19:42:29.884Z,97801.00
2018-07-22T19:44:58.153Z,97800.86
2018-07-22T19:47:26.436Z,97805.34
2018-07-22T19:49:54.645Z,97806.44
2018-07-22T19:52:22.925Z,97808.79
2018-07-22T19:54:51.193Z,97803.48
2018-07-22T19:57:19.793Z,97806.41
2018-07-22T19:59:48.427Z,97807.58
2018-07-22T20:02:16.617Z,97809.02
2018-07-22T20:04:45.967Z,97810.60
2018-07-22T20:07:14.477Z,97818.12
2018-07-22T20:09:43.315Z,97822.03
2018-07-22T20:12:12.415Z,97823.06
2018-07-22T20:14:40.617Z,97827.39
2018-07-22T20:17:08.817Z,97834.13
2018-07-22T20:19:37.040Z,97835.58
2018-07-22T20:22:05.282Z,97833.42
2018-07-22T20:24:33.465Z,97842.27
2018-07-22T20:27:01.678Z,97836.98
2018-07-22T20:29:29.894Z,97832.20
2018-07-22T20:31:58.240Z,97839.64
2018-07-22T20:34:26.500Z,97834.98
2018-07-22T20:36:54.687Z,97836.97
2018-07-22T20:39:22.972Z,97835.38
2018-07-22T20:41:51.368Z,97833.72
2018-07-22T20:44:19.632Z,97839.02
2018-07-22T20:46:47.875Z,97826.30
2018-07-22T20:49:16.072Z,97825.78
2018-07-22T20:51:44.256Z,97820.08
2018-07-22T20:54:12.512Z,97821.59
2018-07-22T20:56:40.728Z,97828.64
2018-07-22T20:59:08.888Z,97836.72
2018-07-22T21:01:37.496Z,97834.37
2018-07-22T21:04:06.326Z,97836.09
2018-07-22T21:06:34.894Z,97837.71
2018-07-22T21:09:03.142Z,97833.56
2018-07-22T21:11:43.192Z,97836.22
2018-07-22T21:14:11.366Z,97837.31
2018-07-22T21:16:39.549Z,97832.66
2018-07-22T21:19:07.742Z,97832.20
2018-07-22T21:21:35.996Z,97833.69
2018-07-22T21:24:04.173Z,97843.87
2018-07-22T21:26:32.369Z,97842.86
2018-07-22T21:29:00.562Z,97841.77
2018-07-22T21:31:28.745Z,97840.16
2018-07-22T21:33:56.966Z,97844.77
2018-07-22T21:36:25.124Z,97845.64
2018-07-22T21:38:53.421Z,97848.06
2018-07-22T21:41:21.589Z,97845.03
2018-07-22T21:43:49.764Z,97838.73
2018-07-22T21:46:17.957Z,97836.11
2018-07-22T21:48:46.151Z,97833.30
2018-07-22T21:51:14.376Z,97835.77
2018-07-22T21:53:42.549Z,97841.30
2018-07-22T21:56:10.963Z,97836.41
2018-07-22T21:58:39.216Z,97837.89
2018-07-22T22:01:07.724Z,97838.72
2018-07-22T22:03:36.344Z,97834.08
2018-07-22T22:06:04.519Z,97838.95
2018-07-22T22:08:32.685Z,97836.33
2018-07-22T22:11:00.877Z,97838.42
2018-07-22T22:13:29.092Z,97834.73
2018-07-22T22:15:57.269Z,97838.59
2018-07-22T22:18:25.546Z,97837.98
2018-07-22T22:20:53.726Z,97840.62
2018-07-22T22:23:21.985Z,97839.58
2018-07-22T22:25:50.177Z,97837.69
2018-07-22T22:28:18.361Z,97841.04
2018-07-22T22:30:46.603Z,97834.31
2018-07-22T22:33:14.797Z,97842.39
2018-07-22T22:35:42.989Z,97833.60
2018-07-22T22:38:11.193Z,97842.61
2018-07-22T22:40:39.409Z,97832.94
2018-07-22T22:43:07.597Z,97838.53
2018-07-22T22:45:35.773Z,97836.27
2018-07-22T22:48:03.971Z,97840.12
2018-07-22T22:50:32.193Z,97840.32
2018-07-22T22:53:00.425Z,97833.41
2018-07-22T22:55:28.618Z,97837.65
2018-07-22T22:58:08.309Z,97833.84
2018-07-22T23:00:36.582Z,97835.68
2018-07-22T23:03:04.856Z,97836.42
2018-07-22T23:05:33.108Z,97833.41
2018-07-22T23:08:01.304Z,97835.16
2018-07-22T23:10:29.494Z,97837.39
2018-07-22T23:12:57.700Z,97831.02
2018-07-22T23:15:25.886Z,97838.30
2018-07-22T23:17:54.062Z,97834.56
2018-07-22T23:20:22.258Z,97841.34
2018-07-22T23:22:50.470Z,97844.92
2018-07-22T23:25:18.633Z,97841.18
2018-07-22T23:27:46.801Z,97839.91
2018-07-22T23:30:14.994Z,97843.75
2018-07-22T23:32:43.233Z,97843.13
2018-07-22T23:35:11.417Z,97844.48
2018-07-22T23:37:39.617Z,97835.98
2018-07-22T23:40:07.793Z,97844.48
2018-07-22T23:42:36.037Z,97838.39
2018-07-22T23:45:04.257Z,97847.73
2018-07-22T23:47:32.429Z,97845.43
2018-07-22T23:50:02.805Z,97848.92
2018-07-22T23:52:30.978Z,97849.27
2018-07-22T23:54:59.157Z,97848.20
2018-07-22T23:57:27.328Z,97843.75
2018-07-22T23:59:55.532Z,97838.49
